Terminal Aerodrome Forecast
Issued by NWS

Home | Current Version | Previous Version | Text Only | Print | Product List | Glossary On
Versions: 1 2 3 4 5 6 7 8 9 10 11 12 13 14 15
852
FTUS45 KABQ 082010 AAA
TAFROW
TAF AMD
KROW 082010Z 0820/0918 15004KT P6SM OVC019
     FM082200 16007KT P6SM BKN040
     FM090900 17006KT P6SM OVC015
      TEMPO 0911/0915 OVC007
     FM091600 16005KT P6SM BKN025=

USA.gov is the U.S. government's official web portal to all federal, state and local government web resources and services.